Last 30 Days

Alpine-Summit 8643' (Ward Mt.)

Daily Data | America/Los_Angeles
as of 10/27/20 8:18 PM PDT
Date Daily Max Temp (°F) Time of Max Temp Daily Min Temp (°F) Time of Min Temp Wind Spd (mph) Daily Max Wind (mph) Max RH (%) Min RH (%) Wet Bulb (°F)
10/26/20 37.1 1605 15.3 0329 61.0 119.2 76 13 18.6
10/25/20 38.6 1337 17.1 2325 40.4 117.0 72 25 26.2
10/24/20 52.7 1449 37.2 2321 27.3 45.6 70 27 35.0
10/23/20 56.6 1553 35.9 0108 19.6 43.4 77 26 38.0
10/22/20 60.5 1559 36.6 2359 12.2 23.3 74 28 37.2
10/21/20 62.1 1547 47.8 2359 20.7 46.6 45 22 39.3
10/20/20 68.1 1604 46.9 0509 19.0 37.1 45 14 40.0
10/19/20 65.7 1532 48.0 0720 15.4 30.0 45 20 40.3
10/18/20 63.1 1623 49.4 2328 19.4 46.2 47 10 40.4
10/17/20 67.4 1617 50.5 0054 15.6 47.3 32 10 40.1
10/16/20 66.5 1455 42.2 0451 26.4 47.1 52 18 38.3
10/15/20 60.4 1533 44.3 2359 27.3 48.3 53 30 41.0
10/14/20 71.6 1626 50.3 2323 15.6 31.5 46 21 45.1
10/13/20 52.4 0000 52.3 2359 7.2 8.3 31 29 38.7
10/12/20 52.0 2343 51.9 2359 12.1 13.9 23 23 36.8
10/11/20 49.0 2330 48.4 2359 3.3 8.5 35 26 36.1
10/10/20 37.9 2354 37.8 2351 40.3 44.8 99 99 37.7
10/9/20 43.0 2359 43.0 2359 27.8 29.3 57 57 36.4
10/8/20 49.3 2352 49.0 2358 18.4 20.0 26 25 35.4
10/7/20 53.4 2359 53.4 2359 16.6 18.6 16 15 36.0
10/6/20 55.5 2359 55.3 2355 9.0 10.5 22 22 38.9
10/5/20 53.9 2356 53.8 2359 9.0 9.6 29 29 39.6
10/4/20 53.1 2359 52.9 2356 29.0 32.5 20 20 36.9
9/30/20 56.4 0000 56.3 2359 31.6 33.9 33 32 42.2
9/28/20 62.4 1714 42.9 0655 43.2 76.7 55 22 39.2
9/27/20 58.3 1701 44.8 0706 47.8 72.9 72 33 41.9
Max 71.6 - 56.3 - 61.0 119.2 99 99 45.1
Avg - - - - 23.7 - - - 37.5
Min 37.1 - 15.3 - 3.3 8.3 16 10 18.6